sensor_id;sensor_type;location;lat;lon;timestamp;temperature;humidity
48604;DHT22;32708;51.212;6.788;2022-10-10T00:01:07;11.40;16.20
48604;DHT22;32708;51.212;6.788;2022-10-10T00:03:33;11.40;18.10
48604;DHT22;32708;51.212;6.788;2022-10-10T00:05:59;11.30;23.50
48604;DHT22;32708;51.212;6.788;2022-10-10T00:08:25;11.30;23.10
48604;DHT22;32708;51.212;6.788;2022-10-10T00:10:51;11.30;24.90
48604;DHT22;32708;51.212;6.788;2022-10-10T00:13:17;11.30;25.60
48604;DHT22;32708;51.212;6.788;2022-10-10T00:15:43;11.30;26.40
48604;DHT22;32708;51.212;6.788;2022-10-10T00:18:09;11.30;26.10
48604;DHT22;32708;51.212;6.788;2022-10-10T00:20:35;11.30;26.30
48604;DHT22;32708;51.212;6.788;2022-10-10T00:23:01;11.30;27.00
48604;DHT22;32708;51.212;6.788;2022-10-10T00:25:27;11.20;31.30
48604;DHT22;32708;51.212;6.788;2022-10-10T00:27:53;11.20;31.30
48604;DHT22;32708;51.212;6.788;2022-10-10T00:30:20;11.10;36.00
48604;DHT22;32708;51.212;6.788;2022-10-10T00:32:46;11.20;33.90
48604;DHT22;32708;51.212;6.788;2022-10-10T00:35:12;11.20;35.90
48604;DHT22;32708;51.212;6.788;2022-10-10T00:37:38;11.10;34.60
48604;DHT22;32708;51.212;6.788;2022-10-10T00:40:05;11.10;36.90
48604;DHT22;32708;51.212;6.788;2022-10-10T00:42:31;11.10;37.40
48604;DHT22;32708;51.212;6.788;2022-10-10T00:45:24;11.10;41.70
48604;DHT22;32708;51.212;6.788;2022-10-10T00:47:59;11.00;44.90
48604;DHT22;32708;51.212;6.788;2022-10-10T00:50:28;11.10;43.70
48604;DHT22;32708;51.212;6.788;2022-10-10T00:52:56;11.00;41.00
48604;DHT22;32708;51.212;6.788;2022-10-10T00:55:22;11.00;43.50
48604;DHT22;32708;51.212;6.788;2022-10-10T00:57:49;11.00;43.50
48604;DHT22;32708;51.212;6.788;2022-10-10T01:00:16;11.00;44.90
48604;DHT22;32708;51.212;6.788;2022-10-10T01:02:42;11.00;44.50
48604;DHT22;32708;51.212;6.788;2022-10-10T01:05:08;10.90;46.50
48604;DHT22;32708;51.212;6.788;2022-10-10T01:07:35;11.00;45.30
48604;DHT22;32708;51.212;6.788;2022-10-10T01:10:07;10.90;44.80
48604;DHT22;32708;51.212;6.788;2022-10-10T01:13:03;11.00;44.10
48604;DHT22;32708;51.212;6.788;2022-10-10T01:32:13;10.90;48.00
48604;DHT22;32708;51.212;6.788;2022-10-10T01:40:40;10.90;49.90
48604;DHT22;32708;51.212;6.788;2022-10-10T01:43:10;10.90;50.70
48604;DHT22;32708;51.212;6.788;2022-10-10T01:45:36;10.90;51.70
48604;DHT22;32708;51.212;6.788;2022-10-10T01:48:06;10.80;54.40
48604;DHT22;32708;51.212;6.788;2022-10-10T01:53:42;10.90;52.60
48604;DHT22;32708;51.212;6.788;2022-10-10T02:01:59;10.80;53.30
48604;DHT22;32708;51.212;6.788;2022-10-10T02:05:13;10.90;51.90
48604;DHT22;32708;51.212;6.788;2022-10-10T02:07:27;10.90;51.90
48604;DHT22;32708;51.212;6.788;2022-10-10T02:10:03;10.90;49.50
48604;DHT22;32708;51.212;6.788;2022-10-10T02:12:31;10.90;50.50
48604;DHT22;32708;51.212;6.788;2022-10-10T02:15:07;10.90;49.20
48604;DHT22;32708;51.212;6.788;2022-10-10T02:17:38;10.90;46.30
48604;DHT22;32708;51.212;6.788;2022-10-10T02:20:07;10.90;48.70
48604;DHT22;32708;51.212;6.788;2022-10-10T02:22:38;10.90;49.30
48604;DHT22;32708;51.212;6.788;2022-10-10T02:25:05;10.90;49.10
48604;DHT22;32708;51.212;6.788;2022-10-10T02:30:22;10.90;50.00
48604;DHT22;32708;51.212;6.788;2022-10-10T02:33:00;10.90;50.60
48604;DHT22;32708;51.212;6.788;2022-10-10T02:35:39;10.90;51.60
48604;DHT22;32708;51.212;6.788;2022-10-10T02:38:10;10.90;50.60
48604;DHT22;32708;51.212;6.788;2022-10-10T02:40:39;10.80;53.50
48604;DHT22;32708;51.212;6.788;2022-10-10T02:43:07;10.80;53.30
48604;DHT22;32708;51.212;6.788;2022-10-10T02:45:36;10.80;53.40
48604;DHT22;32708;51.212;6.788;2022-10-10T02:48:04;10.90;51.20
48604;DHT22;32708;51.212;6.788;2022-10-10T02:50:30;10.80;55.00
48604;DHT22;32708;51.212;6.788;2022-10-10T02:52:57;10.90;55.30
48604;DHT22;32708;51.212;6.788;2022-10-10T02:55:24;10.80;56.10
48604;DHT22;32708;51.212;6.788;2022-10-10T02:57:50;10.90;54.70
48604;DHT22;32708;51.212;6.788;2022-10-10T03:00:17;10.80;57.70
48604;DHT22;32708;51.212;6.788;2022-10-10T03:02:44;10.80;57.90
48604;DHT22;32708;51.212;6.788;2022-10-10T03:05:12;11.30;58.80
48604;DHT22;32708;51.212;6.788;2022-10-10T03:07:38;10.80;59.40
48604;DHT22;32708;51.212;6.788;2022-10-10T03:10:05;10.80;59.80
48604;DHT22;32708;51.212;6.788;2022-10-10T03:12:33;10.80;61.50
48604;DHT22;32708;51.212;6.788;2022-10-10T03:15:00;10.80;63.20
48604;DHT22;32708;51.212;6.788;2022-10-10T03:17:26;10.80;65.50
48604;DHT22;32708;51.212;6.788;2022-10-10T03:19:52;10.70;67.70
48604;DHT22;32708;51.212;6.788;2022-10-10T03:22:18;10.70;68.50
48604;DHT22;32708;51.212;6.788;2022-10-10T03:24:44;10.70;69.90
48604;DHT22;32708;51.212;6.788;2022-10-10T03:27:11;10.70;70.70
48604;DHT22;32708;51.212;6.788;2022-10-10T03:29:37;10.80;72.40
48604;DHT22;32708;51.212;6.788;2022-10-10T03:32:03;10.60;74.30
48604;DHT22;32708;51.212;6.788;2022-10-10T03:34:29;10.70;72.90
48604;DHT22;32708;51.212;6.788;2022-10-10T03:36:55;10.70;73.60
48604;DHT22;32708;51.212;6.788;2022-10-10T03:39:21;10.70;73.50
48604;DHT22;32708;51.212;6.788;2022-10-10T03:41:47;10.70;75.00
48604;DHT22;32708;51.212;6.788;2022-10-10T03:44:15;10.70;75.50
48604;DHT22;32708;51.212;6.788;2022-10-10T03:46:41;10.60;76.90
48604;DHT22;32708;51.212;6.788;2022-10-10T03:49:07;10.60;79.00
48604;DHT22;32708;51.212;6.788;2022-10-10T03:51:33;10.70;78.70
48604;DHT22;32708;51.212;6.788;2022-10-10T03:53:59;10.60;80.60
48604;DHT22;32708;51.212;6.788;2022-10-10T03:56:26;10.90;82.00
48604;DHT22;32708;51.212;6.788;2022-10-10T03:58:52;10.60;79.50
48604;DHT22;32708;51.212;6.788;2022-10-10T04:01:22;10.60;80.40
48604;DHT22;32708;51.212;6.788;2022-10-10T04:03:48;10.60;79.70
48604;DHT22;32708;51.212;6.788;2022-10-10T04:06:14;11.60;81.30
48604;DHT22;32708;51.212;6.788;2022-10-10T04:08:40;10.60;81.30
48604;DHT22;32708;51.212;6.788;2022-10-10T04:11:07;10.60;83.40
48604;DHT22;32708;51.212;6.788;2022-10-10T04:13:33;10.60;83.70
48604;DHT22;32708;51.212;6.788;2022-10-10T04:15:59;10.60;84.00
48604;DHT22;32708;51.212;6.788;2022-10-10T04:18:25;10.60;84.50
48604;DHT22;32708;51.212;6.788;2022-10-10T04:20:52;10.60;85.40
48604;DHT22;32708;51.212;6.788;2022-10-10T04:23:18;10.60;86.10
48604;DHT22;32708;51.212;6.788;2022-10-10T04:25:45;10.50;88.30
48604;DHT22;32708;51.212;6.788;2022-10-10T04:28:14;10.50;89.10
48604;DHT22;32708;51.212;6.788;2022-10-10T04:30:40;10.60;89.00
48604;DHT22;32708;51.212;6.788;2022-10-10T04:33:06;10.60;90.00
48604;DHT22;32708;51.212;6.788;2022-10-10T04:35:33;10.50;90.20
48604;DHT22;32708;51.212;6.788;2022-10-10T04:37:59;11.00;91.60
48604;DHT22;32708;51.212;6.788;2022-10-10T04:40:25;10.60;90.80
48604;DHT22;32708;51.212;6.788;2022-10-10T04:42:51;10.50;90.40
48604;DHT22;32708;51.212;6.788;2022-10-10T04:45:17;10.50;90.00
48604;DHT22;32708;51.212;6.788;2022-10-10T04:47:43;10.50;90.50
48604;DHT22;32708;51.212;6.788;2022-10-10T04:50:09;10.50;91.00
48604;DHT22;32708;51.212;6.788;2022-10-10T04:52:35;10.50;91.30
48604;DHT22;32708;51.212;6.788;2022-10-10T04:55:01;10.40;92.30
48604;DHT22;32708;51.212;6.788;2022-10-10T04:57:27;10.50;92.30
48604;DHT22;32708;51.212;6.788;2022-10-10T04:59:53;10.50;92.00
48604;DHT22;32708;51.212;6.788;2022-10-10T05:02:19;10.50;92.40
48604;DHT22;32708;51.212;6.788;2022-10-10T05:04:45;10.50;92.90
48604;DHT22;32708;51.212;6.788;2022-10-10T05:07:11;10.40;93.40
48604;DHT22;32708;51.212;6.788;2022-10-10T05:09:38;10.40;93.40
48604;DHT22;32708;51.212;6.788;2022-10-10T05:12:04;10.80;94.00
48604;DHT22;32708;51.212;6.788;2022-10-10T05:14:30;10.40;94.30
48604;DHT22;32708;51.212;6.788;2022-10-10T05:16:56;10.40;94.10
48604;DHT22;32708;51.212;6.788;2022-10-10T05:19:22;10.40;94.90
48604;DHT22;32708;51.212;6.788;2022-10-10T05:21:48;10.30;95.70
48604;DHT22;32708;51.212;6.788;2022-10-10T05:24:14;10.40;95.60
48604;DHT22;32708;51.212;6.788;2022-10-10T05:26:40;10.30;95.60
48604;DHT22;32708;51.212;6.788;2022-10-10T05:29:06;11.70;96.40
48604;DHT22;32708;51.212;6.788;2022-10-10T05:31:32;10.40;96.30
48604;DHT22;32708;51.212;6.788;2022-10-10T05:33:59;10.30;96.70
48604;DHT22;32708;51.212;6.788;2022-10-10T05:36:25;10.40;96.70
48604;DHT22;32708;51.212;6.788;2022-10-10T05:38:52;10.30;97.50
48604;DHT22;32708;51.212;6.788;2022-10-10T05:41:18;10.30;97.10
48604;DHT22;32708;51.212;6.788;2022-10-10T05:43:44;10.30;97.70
48604;DHT22;32708;51.212;6.788;2022-10-10T05:46:10;10.30;98.10
48604;DHT22;32708;51.212;6.788;2022-10-10T05:48:36;10.30;98.60
48604;DHT22;32708;51.212;6.788;2022-10-10T05:51:02;10.50;98.70
48604;DHT22;32708;51.212;6.788;2022-10-10T05:53:28;10.30;98.50
48604;DHT22;32708;51.212;6.788;2022-10-10T05:55:56;10.30;98.70
48604;DHT22;32708;51.212;6.788;2022-10-10T05:58:22;11.30;99.30
48604;DHT22;32708;51.212;6.788;2022-10-10T06:00:48;10.50;99.10
48604;DHT22;32708;51.212;6.788;2022-10-10T06:03:15;10.30;99.90
48604;DHT22;32708;51.212;6.788;2022-10-10T06:05:46;10.40;99.30
48604;DHT22;32708;51.212;6.788;2022-10-10T06:08:15;10.50;98.80
48604;DHT22;32708;51.212;6.788;2022-10-10T06:10:43;10.30;99.20
48604;DHT22;32708;51.212;6.788;2022-10-10T06:13:12;10.40;99.50
48604;DHT22;32708;51.212;6.788;2022-10-10T06:15:39;10.40;98.90
48604;DHT22;32708;51.212;6.788;2022-10-10T06:18:06;10.90;97.70
48604;DHT22;32708;51.212;6.788;2022-10-10T06:20:39;10.80;95.80
48604;DHT22;32708;51.212;6.788;2022-10-10T06:23:07;11.20;92.20
48604;DHT22;32708;51.212;6.788;2022-10-10T06:25:35;11.10;90.00
48604;DHT22;32708;51.212;6.788;2022-10-10T06:28:02;11.90;83.70
48604;DHT22;32708;51.212;6.788;2022-10-10T06:30:28;11.50;81.60
48604;DHT22;32708;51.212;6.788;2022-10-10T06:32:54;12.90;67.30
48604;DHT22;32708;51.212;6.788;2022-10-10T06:35:22;12.30;59.40
48604;DHT22;32708;51.212;6.788;2022-10-10T06:37:51;12.70;29.20
48604;DHT22;32708;51.212;6.788;2022-10-10T06:40:17;13.20;1.00
48604;DHT22;32708;51.212;6.788;2022-10-10T06:42:43;13.40;1.00
48604;DHT22;32708;51.212;6.788;2022-10-10T06:45:09;13.80;1.00
48604;DHT22;32708;51.212;6.788;2022-10-10T06:47:35;14.40;99.90
48604;DHT22;32708;51.212;6.788;2022-10-10T06:50:01;14.20;99.90
48604;DHT22;32708;51.212;6.788;2022-10-10T06:52:27;14.30;99.90
48604;DHT22;32708;51.212;6.788;2022-10-10T06:54:53;14.40;99.90
48604;DHT22;32708;51.212;6.788;2022-10-10T06:57:19;14.50;99.90
48604;DHT22;32708;51.212;6.788;2022-10-10T06:59:45;14.80;99.90
48604;DHT22;32708;51.212;6.788;2022-10-10T07:02:13;15.80;90.20
48604;DHT22;32708;51.212;6.788;2022-10-10T07:04:39;15.10;84.50
48604;DHT22;32708;51.212;6.788;2022-10-10T07:07:05;15.00;99.90
48604;DHT22;32708;51.212;6.788;2022-10-10T07:09:31;14.80;99.90
48604;DHT22;32708;51.212;6.788;2022-10-10T07:11:57;15.20;1.00
48604;DHT22;32708;51.212;6.788;2022-10-10T07:14:23;15.50;99.90
48604;DHT22;32708;51.212;6.788;2022-10-10T07:16:49;15.60;69.10
48604;DHT22;32708;51.212;6.788;2022-10-10T07:19:15;15.60;1.00
48604;DHT22;32708;51.212;6.788;2022-10-10T07:21:41;15.40;99.90
48604;DHT22;32708;51.212;6.788;2022-10-10T07:24:07;15.40;99.90
48604;DHT22;32708;51.212;6.788;2022-10-10T07:26:33;15.30;99.90
48604;DHT22;32708;51.212;6.788;2022-10-10T07:29:04;14.90;99.90
48604;DHT22;32708;51.212;6.788;2022-10-10T07:31:31;15.20;99.90
48604;DHT22;32708;51.212;6.788;2022-10-10T07:33:57;15.60;99.90
48604;DHT22;32708;51.212;6.788;2022-10-10T07:36:23;15.70;99.90
48604;DHT22;32708;51.212;6.788;2022-10-10T07:38:51;15.80;99.90
48604;DHT22;32708;51.212;6.788;2022-10-10T07:41:18;15.70;99.90
48604;DHT22;32708;51.212;6.788;2022-10-10T07:43:45;15.60;99.90
48604;DHT22;32708;51.212;6.788;2022-10-10T07:46:16;15.10;99.90
48604;DHT22;32708;51.212;6.788;2022-10-10T07:48:43;15.30;99.90
48604;DHT22;32708;51.212;6.788;2022-10-10T07:51:09;15.50;99.90
48604;DHT22;32708;51.212;6.788;2022-10-10T07:53:36;15.50;99.90
48604;DHT22;32708;51.212;6.788;2022-10-10T07:56:07;15.20;99.90
48604;DHT22;32708;51.212;6.788;2022-10-10T07:58:34;15.00;99.90
48604;DHT22;32708;51.212;6.788;2022-10-10T08:01:03;14.90;99.90
48604;DHT22;32708;51.212;6.788;2022-10-10T08:03:29;14.80;99.90
48604;DHT22;32708;51.212;6.788;2022-10-10T08:05:55;14.50;1.00
48604;DHT22;32708;51.212;6.788;2022-10-10T08:08:21;14.30;1.00
48604;DHT22;32708;51.212;6.788;2022-10-10T08:10:47;14.10;1.00
48604;DHT22;32708;51.212;6.788;2022-10-10T08:13:13;14.20;1.00
48604;DHT22;32708;51.212;6.788;2022-10-10T08:15:40;14.10;1.00
48604;DHT22;32708;51.212;6.788;2022-10-10T08:18:06;13.90;13.70
48604;DHT22;32708;51.212;6.788;2022-10-10T08:20:32;13.80;20.70
48604;DHT22;32708;51.212;6.788;2022-10-10T08:22:58;13.80;29.10
48604;DHT22;32708;51.212;6.788;2022-10-10T08:25:24;13.80;25.40
48604;DHT22;32708;51.212;6.788;2022-10-10T08:27:51;13.90;23.80
48604;DHT22;32708;51.212;6.788;2022-10-10T08:30:17;14.00;18.20
48604;DHT22;32708;51.212;6.788;2022-10-10T08:32:43;13.90;19.20
48604;DHT22;32708;51.212;6.788;2022-10-10T08:35:09;13.70;28.80
48604;DHT22;32708;51.212;6.788;2022-10-10T08:37:35;13.70;37.30
48604;DHT22;32708;51.212;6.788;2022-10-10T08:40:01;14.10;27.50
48604;DHT22;32708;51.212;6.788;2022-10-10T08:42:35;14.20;16.00
48604;DHT22;32708;51.212;6.788;2022-10-10T08:45:16;14.50;1.00
48604;DHT22;32708;51.212;6.788;2022-10-10T08:48:06;14.60;1.00
48604;DHT22;32708;51.212;6.788;2022-10-10T08:50:42;15.00;1.00
48604;DHT22;32708;51.212;6.788;2022-10-10T08:53:25;14.70;1.00
48604;DHT22;32708;51.212;6.788;2022-10-10T08:55:54;14.90;1.00
48604;DHT22;32708;51.212;6.788;2022-10-10T08:58:33;15.20;1.00
48604;DHT22;32708;51.212;6.788;2022-10-10T09:01:17;15.20;1.00
48604;DHT22;32708;51.212;6.788;2022-10-10T09:03:46;15.30;1.00
48604;DHT22;32708;51.212;6.788;2022-10-10T09:22:24;15.90;1.00
48604;DHT22;32708;51.212;6.788;2022-10-10T09:24:53;16.10;99.90
48604;DHT22;32708;51.212;6.788;2022-10-10T09:27:33;16.00;99.90
48604;DHT22;32708;51.212;6.788;2022-10-10T09:30:19;16.20;99.90
48604;DHT22;32708;51.212;6.788;2022-10-10T09:32:59;16.30;99.90
48604;DHT22;32708;51.212;6.788;2022-10-10T09:35:34;16.30;99.90
48604;DHT22;32708;51.212;6.788;2022-10-10T09:38:26;16.50;99.90
48604;DHT22;32708;51.212;6.788;2022-10-10T09:43:38;16.90;99.90
48604;DHT22;32708;51.212;6.788;2022-10-10T09:46:05;17.00;99.90
48604;DHT22;32708;51.212;6.788;2022-10-10T09:48:35;17.20;99.90
48604;DHT22;32708;51.212;6.788;2022-10-10T09:51:10;17.30;99.90
48604;DHT22;32708;51.212;6.788;2022-10-10T09:53:37;17.40;99.90
48604;DHT22;32708;51.212;6.788;2022-10-10T09:56:04;17.50;99.90
48604;DHT22;32708;51.212;6.788;2022-10-10T09:58:38;17.50;79.80
48604;DHT22;32708;51.212;6.788;2022-10-10T10:01:15;17.80;99.90
48604;DHT22;32708;51.212;6.788;2022-10-10T10:03:42;17.90;99.90
48604;DHT22;32708;51.212;6.788;2022-10-10T10:06:12;18.20;99.90
48604;DHT22;32708;51.212;6.788;2022-10-10T10:08:41;18.20;80.70
48604;DHT22;32708;51.212;6.788;2022-10-10T10:11:26;18.40;99.90
48604;DHT22;32708;51.212;6.788;2022-10-10T10:13:55;18.70;99.90
48604;DHT22;32708;51.212;6.788;2022-10-10T10:16:35;18.50;99.90
48604;DHT22;32708;51.212;6.788;2022-10-10T10:19:03;18.20;30.20
48604;DHT22;32708;51.212;6.788;2022-10-10T10:21:30;18.50;99.90
48604;DHT22;32708;51.212;6.788;2022-10-10T10:24:00;18.50;99.90
48604;DHT22;32708;51.212;6.788;2022-10-10T10:26:45;18.80;99.90
48604;DHT22;32708;51.212;6.788;2022-10-10T10:29:32;19.20;87.50
48604;DHT22;32708;51.212;6.788;2022-10-10T10:35:07;19.40;99.90
48604;DHT22;32708;51.212;6.788;2022-10-10T10:43:38;18.60;99.90
48604;DHT22;32708;51.212;6.788;2022-10-10T10:46:27;18.70;99.90
48604;DHT22;32708;51.212;6.788;2022-10-10T10:49:14;18.70;99.90
48604;DHT22;32708;51.212;6.788;2022-10-10T10:57:55;18.90;99.90
48604;DHT22;32708;51.212;6.788;2022-10-10T11:00:19;18.80;37.00
48604;DHT22;32708;51.212;6.788;2022-10-10T11:05:36;19.00;99.90
48604;DHT22;32708;51.212;6.788;2022-10-10T11:11:24;18.90;1.00
48604;DHT22;32708;51.212;6.788;2022-10-10T11:13:54;19.30;99.90
48604;DHT22;32708;51.212;6.788;2022-10-10T11:16:28;19.40;9.60
48604;DHT22;32708;51.212;6.788;2022-10-10T11:19:14;19.50;99.90
48604;DHT22;32708;51.212;6.788;2022-10-10T11:21:59;19.30;99.90
48604;DHT22;32708;51.212;6.788;2022-10-10T11:24:45;19.40;99.90
48604;DHT22;32708;51.212;6.788;2022-10-10T11:30:35;19.60;1.00
48604;DHT22;32708;51.212;6.788;2022-10-10T11:33:19;19.90;99.90
48604;DHT22;32708;51.212;6.788;2022-10-10T11:41:03;20.20;99.90
48604;DHT22;32708;51.212;6.788;2022-10-10T11:43:48;19.90;99.90
48604;DHT22;32708;51.212;6.788;2022-10-10T11:54:34;19.80;99.90
48604;DHT22;32708;51.212;6.788;2022-10-10T11:57:18;19.70;99.90
48604;DHT22;32708;51.212;6.788;2022-10-10T11:59:52;19.70;1.00
48604;DHT22;32708;51.212;6.788;2022-10-10T12:02:26;19.70;99.90
48604;DHT22;32708;51.212;6.788;2022-10-10T12:04:56;19.80;99.90
48604;DHT22;32708;51.212;6.788;2022-10-10T12:07:30;20.10;99.90
48604;DHT22;32708;51.212;6.788;2022-10-10T12:10:06;20.10;99.90
48604;DHT22;32708;51.212;6.788;2022-10-10T12:12:41;19.90;98.60
48604;DHT22;32708;51.212;6.788;2022-10-10T12:15:27;19.80;99.90
48604;DHT22;32708;51.212;6.788;2022-10-10T12:17:55;19.90;99.90
48604;DHT22;32708;51.212;6.788;2022-10-10T12:25:44;20.00;99.90
48604;DHT22;32708;51.212;6.788;2022-10-10T12:50:03;19.90;1.00
48604;DHT22;32708;51.212;6.788;2022-10-10T12:52:34;19.90;1.00
48604;DHT22;32708;51.212;6.788;2022-10-10T12:57:39;20.30;4.70
48604;DHT22;32708;51.212;6.788;2022-10-10T13:00:18;20.30;1.00
48604;DHT22;32708;51.212;6.788;2022-10-10T13:02:49;20.20;21.10
48604;DHT22;32708;51.212;6.788;2022-10-10T13:05:26;20.30;99.90
48604;DHT22;32708;51.212;6.788;2022-10-10T13:07:59;20.60;99.90
48604;DHT22;32708;51.212;6.788;2022-10-10T13:10:27;20.60;99.90
48604;DHT22;32708;51.212;6.788;2022-10-10T13:15:25;20.40;99.90
48604;DHT22;32708;51.212;6.788;2022-10-10T13:17:51;19.70;1.00
48604;DHT22;32708;51.212;6.788;2022-10-10T13:23:05;20.00;99.90
48604;DHT22;32708;51.212;6.788;2022-10-10T13:25:34;20.10;99.90
48604;DHT22;32708;51.212;6.788;2022-10-10T13:28:03;20.20;99.90
48604;DHT22;32708;51.212;6.788;2022-10-10T13:30:29;20.20;99.90
48604;DHT22;32708;51.212;6.788;2022-10-10T13:32:56;20.30;99.90
48604;DHT22;32708;51.212;6.788;2022-10-10T13:35:25;20.40;85.90
48604;DHT22;32708;51.212;6.788;2022-10-10T13:37:58;20.30;99.90
48604;DHT22;32708;51.212;6.788;2022-10-10T13:40:26;20.20;99.90
48604;DHT22;32708;51.212;6.788;2022-10-10T13:42:53;20.10;99.90
48604;DHT22;32708;51.212;6.788;2022-10-10T13:45:29;20.20;99.90
48604;DHT22;32708;51.212;6.788;2022-10-10T13:50:34;20.10;99.90
48604;DHT22;32708;51.212;6.788;2022-10-10T13:56:29;20.00;99.90
48604;DHT22;32708;51.212;6.788;2022-10-10T14:01:46;20.00;99.90
48604;DHT22;32708;51.212;6.788;2022-10-10T14:06:47;19.80;99.90
48604;DHT22;32708;51.212;6.788;2022-10-10T14:09:29;19.90;99.90
48604;DHT22;32708;51.212;6.788;2022-10-10T14:12:00;19.90;99.90
48604;DHT22;32708;51.212;6.788;2022-10-10T14:14:58;19.80;99.90
48604;DHT22;32708;51.212;6.788;2022-10-10T14:17:24;19.80;99.90
48604;DHT22;32708;51.212;6.788;2022-10-10T14:19:51;19.80;99.90
48604;DHT22;32708;51.212;6.788;2022-10-10T14:22:19;19.80;99.90
48604;DHT22;32708;51.212;6.788;2022-10-10T14:24:45;19.70;99.90
48604;DHT22;32708;51.212;6.788;2022-10-10T14:29:47;19.80;99.90
48604;DHT22;32708;51.212;6.788;2022-10-10T14:32:14;19.70;99.90
48604;DHT22;32708;51.212;6.788;2022-10-10T14:34:41;19.50;99.90
48604;DHT22;32708;51.212;6.788;2022-10-10T14:37:24;19.50;1.00
48604;DHT22;32708;51.212;6.788;2022-10-10T14:39:51;19.50;1.00
48604;DHT22;32708;51.212;6.788;2022-10-10T14:42:20;19.50;99.90
48604;DHT22;32708;51.212;6.788;2022-10-10T14:44:46;19.70;99.90
48604;DHT22;32708;51.212;6.788;2022-10-10T14:47:18;19.70;99.90
48604;DHT22;32708;51.212;6.788;2022-10-10T14:49:45;19.60;1.00
48604;DHT22;32708;51.212;6.788;2022-10-10T14:52:11;19.40;94.70
48604;DHT22;32708;51.212;6.788;2022-10-10T14:54:37;19.30;99.90
48604;DHT22;32708;51.212;6.788;2022-10-10T14:59:49;19.20;99.90
48604;DHT22;32708;51.212;6.788;2022-10-10T15:02:20;19.10;1.00
48604;DHT22;32708;51.212;6.788;2022-10-10T15:04:47;18.90;99.90
48604;DHT22;32708;51.212;6.788;2022-10-10T15:07:15;18.90;98.50
48604;DHT22;32708;51.212;6.788;2022-10-10T15:09:45;18.80;22.20
48604;DHT22;32708;51.212;6.788;2022-10-10T15:12:12;18.70;99.90
48604;DHT22;32708;51.212;6.788;2022-10-10T15:14:38;18.60;99.90
48604;DHT22;32708;51.212;6.788;2022-10-10T15:17:04;18.60;1.00
48604;DHT22;32708;51.212;6.788;2022-10-10T15:19:30;18.40;1.00
48604;DHT22;32708;51.212;6.788;2022-10-10T15:21:56;18.30;1.00
48604;DHT22;32708;51.212;6.788;2022-10-10T15:24:22;18.30;1.00
48604;DHT22;32708;51.212;6.788;2022-10-10T15:26:48;18.20;1.00
48604;DHT22;32708;51.212;6.788;2022-10-10T15:29:14;18.10;1.00
48604;DHT22;32708;51.212;6.788;2022-10-10T15:31:40;18.20;1.00
48604;DHT22;32708;51.212;6.788;2022-10-10T15:34:07;18.30;1.00
48604;DHT22;32708;51.212;6.788;2022-10-10T15:36:33;18.20;1.00
48604;DHT22;32708;51.212;6.788;2022-10-10T15:38:59;18.30;1.00
48604;DHT22;32708;51.212;6.788;2022-10-10T15:41:25;18.30;1.00
48604;DHT22;32708;51.212;6.788;2022-10-10T15:43:52;18.30;1.00
48604;DHT22;32708;51.212;6.788;2022-10-10T15:46:24;18.20;1.00
48604;DHT22;32708;51.212;6.788;2022-10-10T15:48:52;18.30;99.90
48604;DHT22;32708;51.212;6.788;2022-10-10T15:51:19;18.30;99.90
48604;DHT22;32708;51.212;6.788;2022-10-10T15:53:45;18.30;99.90
48604;DHT22;32708;51.212;6.788;2022-10-10T15:56:14;18.30;1.00
48604;DHT22;32708;51.212;6.788;2022-10-10T15:58:41;18.20;1.00
48604;DHT22;32708;51.212;6.788;2022-10-10T16:03:35;18.00;99.90
48604;DHT22;32708;51.212;6.788;2022-10-10T16:06:01;18.00;99.90
48604;DHT22;32708;51.212;6.788;2022-10-10T16:08:27;17.90;99.90
48604;DHT22;32708;51.212;6.788;2022-10-10T16:10:53;17.90;99.90
48604;DHT22;32708;51.212;6.788;2022-10-10T16:13:20;17.90;99.90
48604;DHT22;32708;51.212;6.788;2022-10-10T16:15:59;18.00;99.90
48604;DHT22;32708;51.212;6.788;2022-10-10T16:18:28;17.90;99.90
48604;DHT22;32708;51.212;6.788;2022-10-10T16:20:54;17.90;1.00
48604;DHT22;32708;51.212;6.788;2022-10-10T16:23:20;17.90;1.00
48604;DHT22;32708;51.212;6.788;2022-10-10T16:25:46;17.80;1.00
48604;DHT22;32708;51.212;6.788;2022-10-10T16:28:12;17.80;1.00
48604;DHT22;32708;51.212;6.788;2022-10-10T16:30:38;17.70;1.00
48604;DHT22;32708;51.212;6.788;2022-10-10T16:33:04;17.60;1.00
48604;DHT22;32708;51.212;6.788;2022-10-10T16:35:35;17.60;1.00
48604;DHT22;32708;51.212;6.788;2022-10-10T16:38:03;17.60;1.00
48604;DHT22;32708;51.212;6.788;2022-10-10T16:40:29;17.70;1.00
48604;DHT22;32708;51.212;6.788;2022-10-10T16:42:55;17.60;1.00
48604;DHT22;32708;51.212;6.788;2022-10-10T16:45:21;17.60;1.00
48604;DHT22;32708;51.212;6.788;2022-10-10T16:47:47;17.40;9.30
48604;DHT22;32708;51.212;6.788;2022-10-10T16:50:13;17.40;13.80
48604;DHT22;32708;51.212;6.788;2022-10-10T16:52:39;17.40;19.80
48604;DHT22;32708;51.212;6.788;2022-10-10T16:55:06;17.50;20.10
48604;DHT22;32708;51.212;6.788;2022-10-10T16:57:34;17.40;39.20
48604;DHT22;32708;51.212;6.788;2022-10-10T17:00:00;17.20;56.60
48604;DHT22;32708;51.212;6.788;2022-10-10T17:02:26;17.30;58.60
48604;DHT22;32708;51.212;6.788;2022-10-10T17:04:52;17.20;64.80
48604;DHT22;32708;51.212;6.788;2022-10-10T17:07:18;17.10;69.50
48604;DHT22;32708;51.212;6.788;2022-10-10T17:09:45;17.00;70.70
48604;DHT22;32708;51.212;6.788;2022-10-10T17:12:11;16.80;76.80
48604;DHT22;32708;51.212;6.788;2022-10-10T17:14:37;16.80;77.60
48604;DHT22;32708;51.212;6.788;2022-10-10T17:17:03;16.70;82.80
48604;DHT22;32708;51.212;6.788;2022-10-10T17:19:30;16.40;84.30
48604;DHT22;32708;51.212;6.788;2022-10-10T17:21:56;16.60;85.10
48604;DHT22;32708;51.212;6.788;2022-10-10T17:24:23;16.70;88.40
48604;DHT22;32708;51.212;6.788;2022-10-10T17:26:49;16.60;91.50
48604;DHT22;32708;51.212;6.788;2022-10-10T17:29:15;16.50;92.80
48604;DHT22;32708;51.212;6.788;2022-10-10T17:31:41;16.50;93.20
48604;DHT22;32708;51.212;6.788;2022-10-10T17:34:08;16.50;93.40
48604;DHT22;32708;51.212;6.788;2022-10-10T17:36:37;16.40;94.90
48604;DHT22;32708;51.212;6.788;2022-10-10T17:39:04;16.20;98.30
48604;DHT22;32708;51.212;6.788;2022-10-10T17:41:32;16.20;99.00
48604;DHT22;32708;51.212;6.788;2022-10-10T17:43:59;16.10;99.30
48604;DHT22;32708;51.212;6.788;2022-10-10T17:46:26;15.50;99.90
48604;DHT22;32708;51.212;6.788;2022-10-10T17:48:55;16.00;99.90
48604;DHT22;32708;51.212;6.788;2022-10-10T17:51:21;15.90;99.90
48604;DHT22;32708;51.212;6.788;2022-10-10T17:53:49;15.80;99.90
48604;DHT22;32708;51.212;6.788;2022-10-10T17:56:19;14.70;99.90
48604;DHT22;32708;51.212;6.788;2022-10-10T17:58:47;15.30;99.90
48604;DHT22;32708;51.212;6.788;2022-10-10T18:01:15;15.10;99.90
48604;DHT22;32708;51.212;6.788;2022-10-10T18:03:41;15.20;99.90
48604;DHT22;32708;51.212;6.788;2022-10-10T18:06:11;15.20;97.20
48604;DHT22;32708;51.212;6.788;2022-10-10T18:08:40;15.90;95.10